Time;durP1;ratioP1;P1;durP2;ratioP2;P2;SDS_P1;SDS_P2;PMS_P1;PMS_P2;Temp;Humidity;BMP_temperature;BMP_pressure;BME280_temperature;BME280_humidity;BME280_pressure;Samples;Min_cycle;Max_cycle;Signal;HPM_P1;HPM_P2
2022/05/05 00:00:13;;;;;;;4.30;2.63;;;20.50;84.70;;;;;;5049579;28;20059;-64
2022/05/05 00:02:41;;;;;;;6.47;2.90;;;20.60;80.60;;;;;;5048867;28;20068;-64
2022/05/05 00:05:08;;;;;;;8.05;4.82;;;20.50;79.80;;;;;;5050792;28;20040;-65
2022/05/05 00:07:35;;;;;;;9.38;5.18;;;20.40;82.50;;;;;;5050867;28;20028;-65
2022/05/05 00:14:23;;;;;;;10.85;5.20;;;20.40;85.20;;;;;;5046987;28;20478;-66
2022/05/05 00:15:35;;;;;;;2.47;1.60;;;20.50;84.60;;;;;;5048246;28;20036;-65
2022/05/05 00:18:03;;;;;;;3.47;1.42;;;20.50;81.20;;;;;;5047893;28;20044;-65
2022/05/05 00:20:31;;;;;;;3.70;1.60;;;20.60;81.40;;;;;;5046764;28;20103;-65
2022/05/05 00:22:58;;;;;;;3.45;1.95;;;20.60;79.60;;;;;;5048654;28;20032;-65
2022/05/05 00:25:25;;;;;;;3.53;1.90;;;20.70;79.70;;;;;;5049392;28;20020;-65
2022/05/05 00:27:52;;;;;;;5.38;1.52;;;20.60;80.60;;;;;;5045807;28;20024;-65
2022/05/05 00:30:19;;;;;;;7.85;2.03;;;20.50;79.40;;;;;;5046621;28;20082;-65
2022/05/05 00:32:47;;;;;;;3.80;1.50;;;20.40;79.70;;;;;;5046246;28;20485;-65
2022/05/05 00:35:14;;;;;;;4.93;1.23;;;20.40;79.90;;;;;;5047514;28;20075;-66
2022/05/05 00:37:44;;;;;;;4.55;1.23;;;20.50;78.40;;;;;;5043270;28;20118;-65
2022/05/05 00:40:11;;;;;;;3.78;1.40;;;20.60;78.10;;;;;;5039741;28;20382;-66
2022/05/05 00:42:39;;;;;;;3.13;1.42;;;20.90;78.00;;;;;;5038870;28;20056;-66
2022/05/05 00:45:06;;;;;;;2.33;1.30;;;21.20;78.00;;;;;;5046435;28;20075;-66
2022/05/05 00:47:34;;;;;;;5.72;1.15;;;21.50;76.80;;;;;;5047282;28;20490;-65
2022/05/05 00:50:01;;;;;;;1.95;0.90;;;21.70;74.90;;;;;;5047197;28;20083;-65
2022/05/05 00:52:28;;;;;;;3.00;1.15;;;21.90;73.20;;;;;;5046136;28;20075;-66
2022/05/05 00:55:01;;;;;;;3.00;1.08;;;21.90;73.10;;;;;;5045095;28;20021;-65
2022/05/05 00:57:29;;;;;;;1.95;0.90;;;22.10;73.30;;;;;;5044644;28;20068;-65
2022/05/05 01:00:00;;;;;;;2.53;0.90;;;22.10;73.00;;;;;;5045881;28;20358;-64
2022/05/05 01:02:27;;;;;;;2.47;1.02;;;22.20;71.80;;;;;;5044818;28;20056;-63
2022/05/05 01:04:56;;;;;;;2.78;1.20;;;22.20;71.00;;;;;;5043324;28;20021;-65
2022/05/05 01:07:25;;;;;;;1.67;0.90;;;22.10;72.80;;;;;;5045150;28;20112;-65
2022/05/05 01:09:52;;;;;;;4.65;1.15;;;22.20;70.20;;;;;;5031067;28;20022;-65
2022/05/05 01:12:20;;;;;;;3.17;1.48;;;22.10;69.50;;;;;;5035309;28;20026;-64
2022/05/05 01:14:47;;;;;;;3.60;0.93;;;21.90;70.70;;;;;;5046265;28;20017;-66
2022/05/05 01:17:15;;;;;;;2.72;1.02;;;21.90;69.20;;;;;;5043404;28;20050;-63
2022/05/05 01:19:42;;;;;;;1.75;1.20;;;21.90;68.70;;;;;;5030629;28;20081;-65
2022/05/05 01:22:09;;;;;;;2.63;0.82;;;22.00;69.90;;;;;;5045020;28;20119;-66
2022/05/05 01:30:07;;;;;;;2.83;1.15;;;22.40;69.20;;;;;;5042433;28;20047;-65
2022/05/05 01:32:35;;;;;;;1.73;0.73;;;22.50;66.40;;;;;;5039129;28;20092;-66
2022/05/05 01:35:03;;;;;;;2.70;0.75;;;22.50;63.60;;;;;;5043532;28;20020;-66
2022/05/05 01:37:30;;;;;;;6.05;0.90;;;22.60;64.50;;;;;;5031120;28;20045;-65
2022/05/05 01:39:57;;;;;;;3.65;0.98;;;22.60;63.50;;;;;;5040277;28;20067;-64
2022/05/05 01:42:25;;;;;;;4.80;0.80;;;22.60;64.20;;;;;;5037460;28;20025;-66
2022/05/05 01:44:52;;;;;;;2.30;1.00;;;22.50;65.30;;;;;;5044797;28;20052;-66
2022/05/05 01:47:19;;;;;;;5.32;1.35;;;22.60;63.60;;;;;;5042795;28;20028;-67
2022/05/05 01:49:46;;;;;;;2.50;0.88;;;22.50;63.50;;;;;;5040443;28;20117;-66
2022/05/05 01:52:14;;;;;;;3.03;0.82;;;22.50;63.10;;;;;;5045647;28;20112;-66
2022/05/05 01:54:41;;;;;;;2.20;0.77;;;22.40;63.80;;;;;;5036865;28;20156;-66
2022/05/05 01:57:08;;;;;;;2.53;0.90;;;22.40;66.60;;;;;;5048613;28;20037;-65
2022/05/05 01:59:36;;;;;;;1.77;0.80;;;22.50;64.30;;;;;;5043736;28;20025;-64
2022/05/05 02:02:03;;;;;;;1.55;0.80;;;22.40;63.90;;;;;;5045949;28;20036;-64
2022/05/05 02:04:30;;;;;;;2.13;1.10;;;22.30;63.30;;;;;;5042149;28;20053;-64
2022/05/05 02:06:58;;;;;;;1.98;0.90;;;22.20;63.80;;;;;;5043499;28;20432;-64
2022/05/05 02:09:25;;;;;;;6.25;1.10;;;22.20;63.20;;;;;;5037045;28;20116;-64
2022/05/05 02:11:53;;;;;;;2.22;1.05;;;22.10;64.30;;;;;;5042292;28;20032;-65
2022/05/05 02:14:24;;;;;;;2.90;0.95;;;22.20;65.20;;;;;;5050055;28;20021;-65
2022/05/05 02:16:54;;;;;;;8.40;1.20;;;22.30;64.10;;;;;;5049548;28;20032;-64
2022/05/05 02:19:21;;;;;;;2.65;1.00;;;22.40;65.00;;;;;;5046640;28;20485;-64
2022/05/05 02:21:48;;;;;;;1.70;0.70;;;22.60;63.00;;;;;;5038410;28;20112;-63
2022/05/05 02:24:15;;;;;;;3.58;0.80;;;22.50;63.10;;;;;;5045795;28;20025;-63
2022/05/05 02:26:43;;;;;;;3.03;0.80;;;22.30;64.80;;;;;;5038599;28;20025;-64
2022/05/05 02:29:10;;;;;;;3.08;1.20;;;22.30;63.10;;;;;;5048565;28;20025;-65
2022/05/05 02:31:37;;;;;;;2.40;0.95;;;22.30;63.60;;;;;;5035632;28;20025;-64
2022/05/05 02:34:08;;;;;;;2.30;0.98;;;22.30;63.60;;;;;;5042565;28;20124;-63
2022/05/05 02:39:24;;;;;;;1.65;0.80;;;22.20;65.30;;;;;;5049178;28;20060;-63
2022/05/05 02:41:52;;;;;;;2.55;0.70;;;22.30;62.50;;;;;;5037647;28;20017;-63
2022/05/05 02:44:19;;;;;;;5.72;0.93;;;22.40;59.60;;;;;;5051544;28;20478;-63
2022/05/05 02:46:46;;;;;;;2.92;0.90;;;22.30;59.90;;;;;;5048805;28;20025;-62
2022/05/05 02:49:14;;;;;;;4.20;1.00;;;22.20;61.10;;;;;;5035606;28;20033;-62
2022/05/05 02:51:41;;;;;;;1.00;0.50;;;22.20;59.60;;;;;;5045709;28;20056;-63
2022/05/05 02:56:54;;;;;;;2.42;0.90;;;22.30;58.40;;;;;;5050738;28;20048;-64
2022/05/05 02:59:21;;;;;;;2.88;0.80;;;22.30;61.40;;;;;;5041426;28;20425;-64
2022/05/05 03:01:48;;;;;;;3.30;0.90;;;22.50;59.40;;;;;;5050181;28;20044;-62
2022/05/05 03:04:15;;;;;;;2.03;0.90;;;22.50;58.60;;;;;;5045304;28;20108;-63
2022/05/05 03:06:42;;;;;;;1.60;0.90;;;22.50;59.30;;;;;;5049317;28;20017;-64
2022/05/05 03:09:10;;;;;;;5.38;0.88;;;22.60;60.10;;;;;;5049480;28;20371;-64
2022/05/05 03:11:37;;;;;;;2.30;1.30;;;22.70;60.10;;;;;;5050552;28;20021;-63
2022/05/05 03:14:04;;;;;;;3.97;0.80;;;22.90;60.70;;;;;;5047602;28;20029;-65
2022/05/05 03:16:31;;;;;;;1.80;0.77;;;23.00;58.80;;;;;;5048425;28;20475;-62
2022/05/05 03:18:59;;;;;;;2.30;0.80;;;23.10;58.70;;;;;;5038561;28;20037;-63
2022/05/05 03:21:26;;;;;;;3.90;0.80;;;23.00;58.20;;;;;;5048134;28;20036;-64
2022/05/05 03:23:53;;;;;;;2.00;0.88;;;22.90;59.80;;;;;;5049085;28;20043;-65
2022/05/05 03:26:20;;;;;;;3.35;0.90;;;22.80;59.20;;;;;;5047816;28;20025;-64
2022/05/05 03:28:47;;;;;;;3.90;0.80;;;22.90;59.40;;;;;;5041175;28;20028;-63
2022/05/05 03:31:15;;;;;;;5.07;0.90;;;22.90;61.70;;;;;;5033505;28;20029;-66
2022/05/05 03:33:42;;;;;;;2.55;0.80;;;23.00;60.20;;;;;;5046723;28;20028;-62
2022/05/05 03:36:09;;;;;;;4.82;0.85;;;23.10;60.10;;;;;;5047673;28;20024;-67
2022/05/05 03:38:37;;;;;;;3.20;0.75;;;23.10;59.40;;;;;;5049280;28;20037;-65
2022/05/05 03:41:05;;;;;;;2.08;0.70;;;23.20;60.70;;;;;;5046508;28;20037;-63
2022/05/05 03:43:33;;;;;;;3.40;0.95;;;23.30;58.00;;;;;;5034548;28;20085;-63
2022/05/05 03:46:01;;;;;;;1.88;0.77;;;23.40;57.90;;;;;;5041488;28;20049;-63
2022/05/05 03:48:31;;;;;;;4.13;0.70;;;23.50;57.50;;;;;;5042779;28;20024;-63
2022/05/05 03:50:58;;;;;;;2.22;0.90;;;23.30;56.80;;;;;;5042669;28;20039;-63
2022/05/05 03:53:26;;;;;;;1.75;0.88;;;23.30;57.90;;;;;;5048009;28;20033;-63
2022/05/05 03:55:53;;;;;;;3.10;0.70;;;23.10;57.80;;;;;;5043502;28;20017;-63
2022/05/05 03:58:20;;;;;;;2.05;0.95;;;22.90;59.10;;;;;;5046645;28;20047;-62
2022/05/05 04:00:47;;;;;;;1.77;0.60;;;22.90;60.10;;;;;;5046817;28;20052;-63
2022/05/05 04:03:34;;;;;;;2.08;0.77;;;22.70;58.00;;;;;;5036101;28;20040;-63
2022/05/05 04:06:06;;;;;;;1.73;0.65;;;22.60;59.80;;;;;;5047379;28;20029;-63
2022/05/05 04:08:36;;;;;;;2.00;0.85;;;22.50;59.50;;;;;;5042375;28;20128;-62
2022/05/05 04:11:04;;;;;;;1.65;0.70;;;22.50;58.80;;;;;;5035332;28;20099;-63
2022/05/05 04:13:32;;;;;;;2.60;0.60;;;22.50;61.20;;;;;;5040619;28;20504;-63
2022/05/05 04:15:59;;;;;;;1.85;0.70;;;22.50;60.00;;;;;;5033362;28;20522;-63
2022/05/05 04:18:26;;;;;;;4.18;0.60;;;22.50;58.80;;;;;;5038118;28;20025;-61
2022/05/05 04:20:53;;;;;;;1.67;0.70;;;22.40;59.40;;;;;;5036657;28;20027;-61
2022/05/05 04:23:21;;;;;;;3.45;1.05;;;22.40;60.60;;;;;;5043642;28;20037;-62
2022/05/05 04:25:48;;;;;;;2.05;1.35;;;22.20;59.10;;;;;;5046397;28;20025;-62
2022/05/05 04:28:17;;;;;;;1.73;0.90;;;22.20;59.80;;;;;;5039812;28;20024;-62
2022/05/05 04:30:45;;;;;;;1.92;0.82;;;22.20;59.60;;;;;;5047428;28;20485;-62
2022/05/05 04:33:13;;;;;;;1.98;0.93;;;22.10;59.50;;;;;;5045504;28;20037;-62
2022/05/05 04:35:40;;;;;;;2.30;0.70;;;22.20;59.70;;;;;;5039030;28;20058;-62
2022/05/05 04:38:08;;;;;;;3.20;0.77;;;22.40;59.40;;;;;;5046027;28;20099;-62
2022/05/05 04:40:36;;;;;;;3.72;0.80;;;22.60;60.80;;;;;;5036703;28;20030;-62
2022/05/05 04:43:03;;;;;;;1.80;0.75;;;22.90;60.00;;;;;;5043492;28;20132;-62
2022/05/05 04:45:30;;;;;;;1.60;0.77;;;23.00;57.60;;;;;;5045915;28;20078;-63
2022/05/05 04:47:58;;;;;;;3.03;0.90;;;23.10;58.10;;;;;;5042378;28;20038;-62
2022/05/05 04:50:25;;;;;;;2.92;0.68;;;23.00;57.40;;;;;;5036720;28;20025;-63
2022/05/05 04:52:53;;;;;;;2.78;0.77;;;22.90;58.60;;;;;;5041637;28;20029;-62
2022/05/05 04:55:20;;;;;;;3.53;0.70;;;22.90;57.60;;;;;;5040171;28;20025;-63
2022/05/05 04:57:47;;;;;;;3.53;1.30;;;22.80;60.00;;;;;;5037070;28;20548;-62
2022/05/05 05:00:15;;;;;;;3.45;0.75;;;22.70;59.00;;;;;;5037531;28;20038;-62
2022/05/05 05:02:42;;;;;;;2.22;1.02;;;22.60;58.50;;;;;;5038225;28;20048;-61
2022/05/05 05:05:09;;;;;;;1.35;0.70;;;22.50;57.70;;;;;;5043723;28;20067;-64
2022/05/05 05:07:37;;;;;;;2.80;0.88;;;22.40;58.50;;;;;;5035622;28;20025;-61
2022/05/05 05:10:04;;;;;;;1.50;0.75;;;22.50;57.40;;;;;;5045669;28;20033;-61
2022/05/05 05:12:32;;;;;;;4.10;1.23;;;22.40;57.40;;;;;;5041662;28;20021;-61
2022/05/05 05:14:59;;;;;;;1.00;0.68;;;22.40;58.80;;;;;;5038944;28;20031;-61
2022/05/05 05:17:26;;;;;;;3.33;1.05;;;22.50;58.30;;;;;;5036113;28;20040;-62
2022/05/05 05:19:54;;;;;;;3.88;1.25;;;22.50;59.00;;;;;;5037056;28;20096;-61
2022/05/05 05:22:22;;;;;;;3.22;1.23;;;22.50;59.00;;;;;;5044260;28;20381;-61
2022/05/05 05:24:49;;;;;;;5.43;1.15;;;22.40;59.70;;;;;;5043906;28;20500;-61
2022/05/05 05:27:16;;;;;;;2.05;0.80;;;22.30;61.00;;;;;;5054546;28;20047;-61
2022/05/05 05:29:43;;;;;;;3.97;0.80;;;22.10;60.30;;;;;;5042712;28;20029;-63
2022/05/05 05:32:10;;;;;;;4.45;0.88;;;21.90;61.20;;;;;;5039332;28;20044;-62
2022/05/05 05:34:38;;;;;;;1.73;0.75;;;21.80;61.90;;;;;;5048254;28;20036;-61
2022/05/05 05:37:05;;;;;;;1.92;1.40;;;21.70;62.40;;;;;;5036826;28;20029;-60
2022/05/05 05:39:32;;;;;;;3.67;1.38;;;21.50;62.20;;;;;;5044573;28;20107;-62
2022/05/05 05:42:00;;;;;;;2.58;1.23;;;21.50;63.20;;;;;;5042264;28;20025;-62
2022/05/05 05:44:27;;;;;;;4.32;0.90;;;21.40;63.10;;;;;;5046828;28;20021;-62
2022/05/05 05:46:54;;;;;;;4.10;1.25;;;21.40;62.90;;;;;;5033948;28;20037;-62
2022/05/05 05:49:21;;;;;;;2.83;0.82;;;21.40;62.60;;;;;;5034828;28;20022;-62
2022/05/05 05:51:49;;;;;;;2.60;1.33;;;21.30;63.10;;;;;;5046887;28;20467;-62
2022/05/05 05:54:18;;;;;;;3.00;1.23;;;21.20;63.10;;;;;;5041093;28;20025;-62
2022/05/05 05:56:45;;;;;;;4.00;1.10;;;21.20;62.80;;;;;;5048337;28;20025;-62
2022/05/05 05:59:12;;;;;;;2.88;1.00;;;21.20;64.20;;;;;;5035974;28;20025;-63
2022/05/05 06:04:25;;;;;;;3.08;1.10;;;21.10;65.00;;;;;;5039629;28;20124;-62
2022/05/05 06:06:52;;;;;;;3.13;0.90;;;21.00;65.50;;;;;;5050194;28;20014;-62
2022/05/05 06:09:19;;;;;;;6.43;1.27;;;21.00;66.80;;;;;;5050530;28;20119;-62
2022/05/05 06:11:47;;;;;;;5.55;1.10;;;20.90;66.40;;;;;;5035027;28;20014;-62
2022/05/05 06:14:14;;;;;;;4.82;1.30;;;20.80;66.90;;;;;;5032694;28;20036;-63
2022/05/05 06:16:41;;;;;;;6.13;1.48;;;20.80;67.50;;;;;;5049376;28;20572;-62
2022/05/05 06:19:08;;;;;;;7.38;1.83;;;20.70;68.40;;;;;;5051690;28;20021;-63
2022/05/05 06:21:35;;;;;;;2.83;1.13;;;20.70;68.50;;;;;;5046949;28;20059;-62
2022/05/05 06:24:03;;;;;;;3.85;1.17;;;20.70;69.50;;;;;;5047861;28;20489;-62
2022/05/05 06:26:32;;;;;;;2.78;1.25;;;20.70;70.40;;;;;;5046740;28;20712;-62
2022/05/05 06:29:00;;;;;;;3.55;1.70;;;20.60;70.80;;;;;;5047438;28;20117;-64
2022/05/05 06:31:27;;;;;;;3.75;1.55;;;20.60;71.50;;;;;;5042589;28;20421;-62
2022/05/05 06:33:54;;;;;;;3.35;1.00;;;20.50;70.50;;;;;;5051287;28;20032;-62
2022/05/05 06:36:22;;;;;;;5.75;1.15;;;20.50;69.30;;;;;;5049762;28;20017;-61
2022/05/05 06:38:52;;;;;;;5.97;1.30;;;20.40;68.80;;;;;;5045441;28;20056;-62
2022/05/05 06:41:20;;;;;;;3.65;1.33;;;20.40;69.10;;;;;;5050805;28;20025;-63
2022/05/05 06:43:47;;;;;;;3.70;1.38;;;20.40;69.60;;;;;;5041855;28;20025;-63
2022/05/05 06:46:14;;;;;;;3.88;1.40;;;20.30;70.90;;;;;;5043243;28;20593;-64
2022/05/05 06:48:42;;;;;;;5.63;1.80;;;20.20;72.10;;;;;;5049962;28;20040;-63
2022/05/05 06:51:09;;;;;;;3.17;1.20;;;20.10;73.20;;;;;;5042437;28;20095;-64
2022/05/05 06:53:36;;;;;;;6.75;1.88;;;19.90;73.60;;;;;;5036594;28;20021;-62
2022/05/05 06:56:03;;;;;;;5.70;1.10;;;19.90;72.50;;;;;;5039122;28;20021;-62
2022/05/05 06:58:31;;;;;;;3.05;1.55;;;19.90;73.20;;;;;;5043087;28;20108;-63
2022/05/05 07:03:43;;;;;;;8.18;1.95;;;19.80;73.50;;;;;;5036689;28;20091;-64
2022/05/05 07:06:11;;;;;;;4.57;1.33;;;19.70;74.60;;;;;;5042484;28;20021;-64
2022/05/05 07:11:26;;;;;;;7.35;2.00;;;19.60;74.50;;;;;;5033777;28;20039;-64
2022/05/05 07:13:53;;;;;;;6.57;1.60;;;19.50;75.00;;;;;;5043476;28;20092;-64
2022/05/05 07:16:20;;;;;;;4.40;1.58;;;19.40;75.30;;;;;;5041784;28;20108;-64
2022/05/05 07:18:47;;;;;;;5.80;1.55;;;19.30;75.90;;;;;;5037219;28;20029;-64
2022/05/05 07:21:14;;;;;;;5.97;1.90;;;19.10;76.90;;;;;;5047882;28;20390;-63
2022/05/05 07:23:42;;;;;;;5.90;1.50;;;19.00;77.40;;;;;;5036245;28;20029;-65
2022/05/05 07:26:09;;;;;;;8.00;1.52;;;18.90;78.10;;;;;;5042964;28;20049;-69
2022/05/05 07:28:36;;;;;;;6.40;1.52;;;18.70;79.30;;;;;;5044156;28;20099;-64
2022/05/05 07:31:03;;;;;;;5.82;1.60;;;18.70;79.40;;;;;;5034947;28;20034;-65
2022/05/05 07:33:30;;;;;;;7.10;1.95;;;18.70;79.50;;;;;;5047622;28;20386;-65
2022/05/05 07:35:58;;;;;;;3.97;1.50;;;18.60;80.10;;;;;;5038172;28;20363;-65
2022/05/05 07:38:25;;;;;;;5.45;1.13;;;18.40;80.20;;;;;;5039756;28;20053;-65
2022/05/05 07:40:52;;;;;;;5.70;1.48;;;18.20;80.70;;;;;;5045709;28;20017;-64
2022/05/05 07:43:20;;;;;;;6.10;1.98;;;18.00;81.60;;;;;;5034422;28;20021;-64
2022/05/05 07:45:47;;;;;;;4.90;1.58;;;17.80;83.70;;;;;;5044911;28;20160;-64
2022/05/05 07:48:14;;;;;;;5.68;1.83;;;17.70;85.50;;;;;;5040221;28;20061;-64
2022/05/05 07:50:41;;;;;;;4.70;1.60;;;17.70;86.60;;;;;;5036091;28;20159;-64
2022/05/05 07:53:09;;;;;;;8.80;2.83;;;17.60;87.20;;;;;;5047632;28;20052;-64
2022/05/05 07:55:36;;;;;;;7.47;1.80;;;17.50;88.10;;;;;;5035503;28;20021;-64
2022/05/05 07:58:03;;;;;;;24.40;8.55;;;17.40;88.50;;;;;;5040975;28;20037;-64
2022/05/05 08:00:30;;;;;;;10.18;3.42;;;17.30;88.50;;;;;;5040831;28;20166;-64
2022/05/05 08:02:58;;;;;;;11.65;3.90;;;17.20;89.50;;;;;;5042620;28;20020;-64
2022/05/05 08:05:25;;;;;;;6.60;2.10;;;17.10;90.10;;;;;;5048198;28;20013;-64
2022/05/05 08:07:52;;;;;;;8.00;2.63;;;17.10;90.80;;;;;;5036950;28;20473;-64
2022/05/05 08:10:21;;;;;;;6.88;2.17;;;17.30;90.50;;;;;;5038632;28;20083;-64
2022/05/05 08:12:49;;;;;;;6.10;2.40;;;17.30;90.30;;;;;;5043608;28;20033;-62
2022/05/05 08:15:16;;;;;;;7.05;3.42;;;17.40;90.20;;;;;;5033799;28;20045;-63
2022/05/05 08:17:44;;;;;;;14.52;3.75;;;17.50;90.00;;;;;;5046946;28;20029;-64
2022/05/05 08:20:12;;;;;;;12.60;3.50;;;17.50;90.10;;;;;;5040824;28;20105;-65
2022/05/05 08:22:39;;;;;;;5.47;1.98;;;17.40;89.90;;;;;;5037279;28;20367;-66
2022/05/05 08:30:39;;;;;;;10.40;2.28;;;17.30;89.70;;;;;;5037907;28;20394;-64
2022/05/05 08:33:06;;;;;;;8.25;2.15;;;17.20;90.10;;;;;;5047003;28;20099;-64
2022/05/05 08:35:34;;;;;;;5.97;2.03;;;17.10;90.40;;;;;;5036994;28;20033;-65
2022/05/05 08:38:01;;;;;;;4.43;1.85;;;17.20;90.40;;;;;;5048623;28;20049;-64
2022/05/05 08:40:28;;;;;;;6.32;1.90;;;17.20;90.30;;;;;;5037864;28;20026;-64
2022/05/05 08:42:56;;;;;;;8.10;2.63;;;17.20;90.00;;;;;;5039977;28;20025;-65
2022/05/05 08:45:24;;;;;;;7.13;1.90;;;17.10;90.20;;;;;;5037311;28;20017;-65
2022/05/05 08:47:54;;;;;;;10.18;2.10;;;17.10;90.10;;;;;;5039385;28;20029;-65
2022/05/05 08:50:23;;;;;;;8.32;2.17;;;17.00;90.20;;;;;;5037535;28;20070;-65
2022/05/05 08:52:51;;;;;;;4.32;1.55;;;16.90;90.00;;;;;;5032764;28;20769;-64
2022/05/05 08:55:21;;;;;;;5.95;2.33;;;16.80;90.20;;;;;;5043946;28;20104;-64
2022/05/05 08:57:49;;;;;;;4.57;1.52;;;16.70;90.50;;;;;;5040173;28;20470;-64
2022/05/05 09:00:19;;;;;;;5.65;1.52;;;16.60;90.40;;;;;;5036794;28;20049;-65
2022/05/05 09:02:53;;;;;;;6.38;2.47;;;16.40;90.80;;;;;;5039066;28;20033;-64
2022/05/05 09:05:45;;;;;;;9.50;1.90;;;16.30;90.90;;;;;;5043273;28;20032;-63
2022/05/05 09:08:26;;;;;;;4.88;2.10;;;16.20;91.30;;;;;;5051120;28;20048;-63
2022/05/05 09:10:58;;;;;;;9.25;2.08;;;16.10;91.50;;;;;;5041313;28;20301;-63
2022/05/05 09:13:28;;;;;;;23.55;2.35;;;16.00;91.60;;;;;;5042006;28;20067;-63
2022/05/05 09:15:56;;;;;;;4.22;2.20;;;16.00;91.80;;;;;;5039712;28;20020;-63
2022/05/05 09:18:28;;;;;;;5.97;2.22;;;15.90;91.60;;;;;;5046078;28;20033;-63
2022/05/05 09:20:57;;;;;;;11.32;2.03;;;15.90;91.90;;;;;;5044461;28;20057;-65
2022/05/05 09:23:34;;;;;;;8.55;2.25;;;15.80;91.70;;;;;;5039809;28;20413;-66
2022/05/05 09:26:04;;;;;;;9.30;2.42;;;15.70;92.10;;;;;;5045802;28;20103;-66
2022/05/05 09:28:33;;;;;;;9.18;3.05;;;15.60;92.50;;;;;;5046637;28;20057;-66
2022/05/05 09:31:10;;;;;;;6.07;2.90;;;15.60;92.60;;;;;;5041511;28;20096;-63
2022/05/05 09:33:44;;;;;;;8.77;3.05;;;15.60;93.10;;;;;;5031457;28;20112;-65
2022/05/05 09:36:17;;;;;;;7.75;3.30;;;15.70;93.10;;;;;;5038782;28;20030;-65
2022/05/05 09:38:55;;;;;;;6.22;2.75;;;15.90;93.50;;;;;;5039521;28;20131;-64
2022/05/05 09:41:25;;;;;;;14.15;2.83;;;15.90;93.10;;;;;;5045738;28;20433;-65
2022/05/05 09:43:56;;;;;;;7.47;2.63;;;15.90;92.70;;;;;;5040176;28;20029;-67
2022/05/05 09:46:23;;;;;;;8.02;2.85;;;15.90;92.60;;;;;;5042782;28;20087;-66
2022/05/05 09:48:50;;;;;;;8.27;3.40;;;15.80;92.60;;;;;;5044437;28;20131;-63
2022/05/05 09:51:18;;;;;;;9.00;3.08;;;15.80;92.70;;;;;;5044294;28;20040;-64
2022/05/05 09:57:40;;;;;;;6.82;2.33;;;15.80;92.90;;;;;;5028951;28;20424;-64
2022/05/05 09:59:40;;;;;;;10.10;2.90;;;15.70;93.00;;;;;;5041633;28;20548;-65
2022/05/05 10:02:17;;;;;;;10.87;2.80;;;15.70;93.30;;;;;;5032671;28;20025;-66
2022/05/05 10:04:51;;;;;;;14.13;3.22;;;15.80;93.60;;;;;;5043509;28;20043;-65
2022/05/05 10:07:20;;;;;;;;;;;15.80;93.80;;;;;;5032292;28;20026;-65
2022/05/05 10:09:49;;;;;;;24.83;3.85;;;15.90;93.90;;;;;;5043414;28;19962;-65
2022/05/05 10:12:18;;;;;;;15.38;4.38;;;16.00;93.50;;;;;;5045922;28;20551;-65
2022/05/05 10:14:47;;;;;;;16.75;3.20;;;16.10;93.20;;;;;;5046353;28;20032;-64
2022/05/05 10:17:15;;;;;;;12.85;2.65;;;16.10;92.90;;;;;;5039870;28;20505;-65
2022/05/05 10:19:43;;;;;;;16.05;2.92;;;16.20;92.50;;;;;;5044280;28;20413;-66
2022/05/05 10:22:20;;;;;;;23.90;3.38;;;16.20;92.40;;;;;;5045842;28;20029;-64
2022/05/05 10:25:01;;;;;;;15.00;2.80;;;16.20;92.70;;;;;;5045239;28;20029;-63
2022/05/05 10:27:29;;;;;;;10.55;3.28;;;16.20;93.10;;;;;;5043350;28;20022;-64
2022/05/05 10:29:56;;;;;;;11.88;2.75;;;16.20;93.10;;;;;;5045415;28;20021;-66
2022/05/05 10:32:28;;;;;;;11.68;2.90;;;16.20;93.10;;;;;;5036574;28;20132;-66
2022/05/05 10:35:13;;;;;;;10.23;2.80;;;16.30;93.00;;;;;;5041522;28;20029;-64
2022/05/05 10:37:41;;;;;;;11.13;3.10;;;16.30;92.80;;;;;;5048391;28;20811;-64
2022/05/05 10:40:12;;;;;;;11.50;2.90;;;16.30;92.50;;;;;;5042714;28;20428;-66
2022/05/05 10:42:44;;;;;;;14.50;2.90;;;16.20;92.40;;;;;;5046968;28;20024;-66
2022/05/05 10:45:14;;;;;;;8.38;2.85;;;16.30;92.60;;;;;;5048669;28;20048;-66
2022/05/05 10:48:04;;;;;;;12.60;2.53;;;16.30;92.50;;;;;;5039740;28;20028;-64
2022/05/05 10:50:39;;;;;;;10.75;2.78;;;16.20;92.50;;;;;;5034436;28;20068;-64
2022/05/05 10:53:09;;;;;;;;;;;16.30;92.70;;;;;;5045792;28;20067;-67
2022/05/05 10:55:46;;;;;;;19.40;4.00;;;16.30;92.90;;;;;;5034958;28;19909;-64
2022/05/05 10:58:33;;;;;;;23.30;4.72;;;16.40;92.80;;;;;;5038296;28;20501;-67
2022/05/05 11:01:00;;;;;;;34.40;4.78;;;16.50;92.60;;;;;;5048748;28;20472;-66
2022/05/05 11:03:28;;;;;;;26.55;4.28;;;16.60;92.10;;;;;;5051908;28;20032;-67
2022/05/05 11:06:18;;;;;;;24.83;3.90;;;16.60;92.00;;;;;;5047287;28;20033;-66
2022/05/05 11:08:54;;;;;;;27.73;3.72;;;16.60;91.90;;;;;;5043176;28;20060;-64
2022/05/05 11:22:59;;;;;;;9.32;2.78;;;16.20;91.40;;;;;;5032893;28;20470;-64
2022/05/05 11:25:27;;;;;;;8.88;3.58;;;16.20;92.00;;;;;;5044673;28;20124;-64
2022/05/05 11:27:58;;;;;;;12.35;2.78;;;16.10;92.20;;;;;;5038308;28;20040;-64
2022/05/05 11:30:25;;;;;;;10.93;3.33;;;16.10;92.40;;;;;;5039293;28;20053;-65
2022/05/05 11:32:52;;;;;;;8.75;2.55;;;16.00;92.70;;;;;;5032525;28;20427;-63
2022/05/05 11:35:23;;;;;;;8.70;2.80;;;16.00;92.70;;;;;;5043832;28;20031;-65
2022/05/05 11:37:50;;;;;;;10.70;2.72;;;15.90;92.80;;;;;;5032612;28;20044;-65
2022/05/05 11:40:18;;;;;;;6.28;2.63;;;15.90;92.90;;;;;;5046554;28;20033;-66
2022/05/05 11:45:34;;;;;;;9.85;3.28;;;15.90;93.40;;;;;;5041533;28;20036;-65
2022/05/05 11:48:16;;;;;;;10.07;2.42;;;15.90;93.20;;;;;;5036941;28;20103;-65
2022/05/05 11:50:46;;;;;;;9.52;2.45;;;15.90;93.30;;;;;;5048759;28;20025;-64
2022/05/05 11:53:20;;;;;;;13.15;4.05;;;15.80;93.30;;;;;;5049250;28;20393;-67
2022/05/05 11:55:52;;;;;;;8.27;2.83;;;15.80;93.50;;;;;;5036553;28;20422;-62
2022/05/05 12:04:02;;;;;;;7.72;3.38;;;15.70;93.50;;;;;;5045342;28;20064;-63
2022/05/05 12:06:31;;;;;;;9.85;3.20;;;15.70;93.80;;;;;;5035938;28;20028;-62
2022/05/05 12:08:59;;;;;;;11.18;3.05;;;15.80;94.10;;;;;;5040888;28;20025;-64
2022/05/05 12:11:30;;;;;;;7.57;2.88;;;15.80;94.20;;;;;;5035493;28;20086;-65
2022/05/05 12:14:09;;;;;;;10.45;3.42;;;15.80;93.90;;;;;;5034747;28;20021;-64
2022/05/05 12:16:38;;;;;;;9.05;3.90;;;15.80;93.90;;;;;;5038829;28;20032;-63
2022/05/05 12:19:12;;;;;;;15.93;4.10;;;15.90;93.80;;;;;;5040589;28;20041;-64
2022/05/05 12:21:52;;;;;;;7.05;3.70;;;15.90;93.60;;;;;;5032776;28;20025;-65
2022/05/05 12:24:22;;;;;;;12.35;4.20;;;16.00;93.50;;;;;;5036911;28;20425;-64
2022/05/05 12:27:06;;;;;;;15.05;4.70;;;16.00;93.30;;;;;;5041389;28;20020;-64
2022/05/05 12:29:45;;;;;;;6.35;2.70;;;16.10;93.10;;;;;;5054425;28;20053;-64
2022/05/05 12:32:17;;;;;;;8.70;3.00;;;16.10;92.00;;;;;;5043062;28;20025;-65
2022/05/05 12:34:45;;;;;;;16.02;3.53;;;16.00;91.70;;;;;;5033600;28;20055;-64
2022/05/05 12:37:17;;;;;;;8.32;2.25;;;16.00;91.70;;;;;;5043477;28;20036;-64
2022/05/05 12:40:08;;;;;;;5.53;1.95;;;15.90;91.20;;;;;;5032751;28;20029;-64
2022/05/05 12:42:39;;;;;;;8.15;2.20;;;15.90;90.70;;;;;;5047004;28;20153;-65
2022/05/05 12:45:15;;;;;;;7.28;1.85;;;15.80;90.90;;;;;;5042950;28;20017;-64
2022/05/05 12:47:45;;;;;;;5.53;1.88;;;15.80;90.20;;;;;;5043548;28;20059;-65
2022/05/05 12:50:31;;;;;;;5.03;2.15;;;15.70;89.10;;;;;;5040799;28;20455;-64
2022/05/05 13:01:46;;;;;;;3.78;1.52;;;15.90;85.20;;;;;;5040027;28;20163;-62
2022/05/05 13:04:15;;;;;;;6.60;1.23;;;15.90;84.90;;;;;;5049251;28;20070;-63
2022/05/05 13:06:45;;;;;;;4.97;1.20;;;16.00;84.00;;;;;;5046098;28;20029;-63
2022/05/05 13:09:13;;;;;;;3.50;1.55;;;16.00;82.80;;;;;;5045321;28;20127;-64
2022/05/05 13:11:46;;;;;;;3.45;1.42;;;16.10;82.40;;;;;;5046804;28;20040;-64
2022/05/05 13:14:14;;;;;;;3.08;1.10;;;16.10;82.80;;;;;;5048345;28;20113;-64
2022/05/05 13:16:42;;;;;;;6.57;1.50;;;16.10;83.00;;;;;;5048637;28;20024;-64
2022/05/05 13:19:10;;;;;;;4.35;1.08;;;16.10;83.10;;;;;;5049767;28;20040;-64
2022/05/05 13:21:39;;;;;;;2.70;1.10;;;16.10;82.60;;;;;;5049910;28;20100;-63
2022/05/05 13:24:07;;;;;;;3.38;1.15;;;16.10;82.30;;;;;;5048111;28;20029;-63
2022/05/05 13:26:36;;;;;;;4.38;1.52;;;16.10;82.20;;;;;;5049200;28;20060;-63
2022/05/05 13:29:03;;;;;;;2.90;1.10;;;16.10;82.70;;;;;;5036995;28;20041;-63
2022/05/05 13:31:30;;;;;;;1.95;0.88;;;16.10;82.60;;;;;;5047470;28;20041;-63
2022/05/05 13:33:58;;;;;;;6.60;1.30;;;16.00;82.20;;;;;;5048539;28;20021;-63
2022/05/05 13:36:25;;;;;;;4.35;1.20;;;16.00;82.80;;;;;;5046853;28;20028;-64
2022/05/05 13:38:52;;;;;;;2.08;1.05;;;15.90;82.90;;;;;;5032764;28;20125;-64
2022/05/05 13:41:19;;;;;;;3.60;0.95;;;15.90;83.20;;;;;;5045980;28;20075;-65
2022/05/05 13:43:47;;;;;;;4.05;1.00;;;15.80;82.60;;;;;;5049156;28;20382;-62
2022/05/05 13:46:14;;;;;;;3.75;1.52;;;15.80;82.90;;;;;;5047158;28;20063;-65
2022/05/05 13:48:42;;;;;;;2.80;1.00;;;15.70;83.10;;;;;;5047759;28;20025;-65
2022/05/05 13:51:09;;;;;;;5.63;1.05;;;15.60;83.60;;;;;;5048537;28;20033;-64
2022/05/05 13:53:36;;;;;;;2.15;1.05;;;15.50;84.00;;;;;;5049706;28;20024;-63